createdAt,value
2016-10-15T00:00:34.884Z,53.27
2016-10-15T00:01:34.584Z,52.86
2016-10-15T00:02:34.606Z,53.05
2016-10-15T00:03:34.946Z,52.67
2016-10-15T00:04:34.655Z,52.28
2016-10-15T00:05:35.006Z,52.38
2016-10-15T00:06:34.702Z,52.57
2016-10-15T00:07:34.722Z,51.51
2016-10-15T00:08:34.747Z,52
2016-10-15T00:09:34.769Z,51.51
2016-10-15T00:10:34.794Z,52
2016-10-15T00:11:35.130Z,52.09
2016-10-15T00:12:34.857Z,52.48
2016-10-15T00:13:34.865Z,52.57
2016-10-15T00:14:34.918Z,52.76
2016-10-15T00:15:35.222Z,52.57
2016-10-15T00:16:35.252Z,52.76
2016-10-15T00:17:34.954Z,53.05
2016-10-15T00:18:34.976Z,53.24
2016-10-15T00:19:35.317Z,52.86
2016-10-15T00:20:35.344Z,53.05
2016-10-15T00:21:35.065Z,53.44
2016-10-15T00:22:35.386Z,53.75
2016-10-15T00:23:35.092Z,53.63
2016-10-15T00:24:35.122Z,53.17
2016-10-15T00:25:35.137Z,53.17
2016-10-15T00:26:35.162Z,53.66
2016-10-15T00:27:35.500Z,53.46
2016-10-15T00:28:35.522Z,54.23
2016-10-15T00:29:35.231Z,53.66
2016-10-15T00:30:35.253Z,53.36
2016-10-15T00:31:35.295Z,53.46
2016-10-15T00:32:35.299Z,53.08
2016-10-15T00:33:35.321Z,53.08
2016-10-15T00:34:35.347Z,53.36
2016-10-15T00:35:35.369Z,53.27
2016-10-15T00:36:35.404Z,53.08
2016-10-15T00:37:35.729Z,53.15
2016-10-15T00:38:35.439Z,53.24
2016-10-15T00:39:35.463Z,53.63
2016-10-15T00:40:35.810Z,54.11
2016-10-15T00:41:35.508Z,54.11
2016-10-15T00:42:35.846Z,54.68
2016-10-15T00:43:35.867Z,54.21
2016-10-15T00:44:35.899Z,53.72
2016-10-15T00:45:35.600Z,53.72
2016-10-15T00:46:35.934Z,52.86
2016-10-15T00:47:35.646Z,52.95
2016-10-15T00:48:35.668Z,52.48
2016-10-15T00:49:36.005Z,52.67
2016-10-15T00:50:36.029Z,53.05
2016-10-15T00:51:36.054Z,53.53
2016-10-15T00:52:36.091Z,53.24
2016-10-15T00:53:36.098Z,54.68
2016-10-15T00:54:36.121Z,54.21
2016-10-15T00:55:36.151Z,55.07
2016-10-15T00:56:35.854Z,55.35
2016-10-15T00:57:35.878Z,55.45
2016-10-15T00:58:36.217Z,55.35
2016-10-15T00:59:36.345Z,55.26
2016-10-15T01:00:35.943Z,55.16
2016-10-15T01:01:35.973Z,55.64
2016-10-15T01:02:35.988Z,55.35
2016-10-15T01:03:36.328Z,55.74
2016-10-15T01:04:36.352Z,54.88
2016-10-15T01:05:36.059Z,55.26
2016-10-15T01:06:36.080Z,55.07
2016-10-15T01:07:36.430Z,54.58
2016-10-15T01:08:36.126Z,54.78
2016-10-15T01:09:36.149Z,55.07
2016-10-15T01:10:36.170Z,54.97
2016-10-15T01:11:36.193Z,55.16
2016-10-15T01:12:36.533Z,54.58
2016-10-15T01:13:36.556Z,54.68
2016-10-15T01:14:36.261Z,54.49
2016-10-15T01:15:36.604Z,55.26
2016-10-15T01:16:36.316Z,55.35
2016-10-15T01:17:36.330Z,55.35
2016-10-15T01:18:36.776Z,55.45
2016-10-15T01:19:36.693Z,55.35
2016-10-15T01:20:36.401Z,55.55
2016-10-15T01:21:36.423Z,56.12
2016-10-15T01:22:36.449Z,56.02
2016-10-15T01:23:36.486Z,56.12
2016-10-15T01:24:36.500Z,56.12
2016-10-15T01:25:36.513Z,56.79
2016-10-15T01:26:36.537Z,56.41
2016-10-15T01:27:36.882Z,56.31
2016-10-15T01:28:36.584Z,56.79
2016-10-15T01:29:36.922Z,55.93
2016-10-15T01:30:36.627Z,56.12
2016-10-15T01:31:36.652Z,56.41
2016-10-15T01:32:36.991Z,56.22
2016-10-15T01:33:36.696Z,56.41
2016-10-15T01:34:36.719Z,56.31
2016-10-15T01:35:36.739Z,56.02
2016-10-15T01:36:36.762Z,56.41
2016-10-15T01:37:37.100Z,55.83
2016-10-15T01:38:37.139Z,56.02
2016-10-15T01:39:37.145Z,55.64
2016-10-15T01:40:36.853Z,55.93
2016-10-15T01:41:36.878Z,56.22
2016-10-15T01:42:37.230Z,56.22
2016-10-15T01:43:37.240Z,55.52
2016-10-15T01:44:36.946Z,55.52
2016-10-15T01:45:37.289Z,55.71
2016-10-15T01:46:36.998Z,54.66
2016-10-15T01:47:37.330Z,54.85
2016-10-15T01:48:37.034Z,55.33
2016-10-15T01:49:37.376Z,55.52
2016-10-15T01:50:37.080Z,56
2016-10-15T01:51:37.103Z,55.9
2016-10-15T01:52:37.127Z,56
2016-10-15T01:53:37.465Z,56.29
2016-10-15T01:54:37.491Z,56.76
2016-10-15T01:55:37.517Z,56.96
2016-10-15T01:56:37.218Z,56.86
2016-10-15T01:57:37.570Z,57.63
2016-10-15T01:58:37.265Z,57.43
2016-10-15T01:59:37.282Z,57.06
2016-10-15T02:00:37.631Z,56.96
2016-10-15T02:01:37.335Z,56.96
2016-10-15T02:02:37.353Z,57.15
2016-10-15T02:03:37.375Z,57.72
2016-10-15T02:04:37.400Z,57.63
2016-10-15T02:05:37.421Z,57.34
2016-10-15T02:06:37.442Z,57.53
2016-10-15T02:07:37.471Z,57.43
2016-10-15T02:08:37.820Z,57.43
2016-10-15T02:09:37.519Z,57.72
2016-10-15T02:10:37.846Z,57.63
2016-10-15T02:11:37.557Z,57.43
2016-10-15T02:12:37.578Z,57.43
2016-10-15T02:13:37.917Z,57.15
2016-10-15T02:14:37.624Z,57.43
2016-10-15T02:15:37.648Z,58.01
2016-10-15T02:16:37.669Z,58.2
2016-10-15T02:17:37.694Z,58.11
2016-10-15T02:18:37.726Z,58.2
2016-10-15T02:19:37.738Z,58.01
2016-10-15T02:20:38.086Z,57.79
2016-10-15T02:21:38.098Z,58.46
2016-10-15T02:22:37.805Z,58.37
2016-10-15T02:23:38.145Z,58.01
2016-10-15T02:24:38.053Z,58.37
2016-10-15T02:25:38.186Z,58.37
2016-10-15T02:26:37.894Z,58.27
2016-10-15T02:27:37.918Z,58.75
2016-10-15T02:28:37.938Z,58.59
2016-10-15T02:29:37.962Z,58.65
2016-10-15T02:30:38.301Z,58.78
2016-10-15T02:31:38.323Z,58.59
2016-10-15T02:32:38.032Z,58.59
2016-10-15T02:33:38.368Z,58.46
2016-10-15T02:34:38.072Z,58.56
2016-10-15T02:35:38.096Z,58.84
2016-10-15T02:36:38.443Z,59.13
2016-10-15T02:37:38.141Z,58.69
2016-10-15T02:38:38.480Z,58.27
2016-10-15T02:39:38.192Z,58.75
2016-10-15T02:40:38.208Z,58.37
2016-10-15T02:41:38.229Z,58.46
2016-10-15T02:42:38.569Z,58.65
2016-10-15T02:43:38.274Z,58.84
2016-10-15T02:44:38.296Z,59.42
2016-10-15T02:45:38.638Z,59.42
2016-10-15T02:46:38.341Z,59.33
2016-10-15T02:47:38.361Z,59.42
2016-10-15T02:48:38.410Z,59.42
2016-10-15T02:49:38.724Z,59.52
2016-10-15T02:50:38.429Z,59.9
2016-10-15T02:51:38.458Z,59.8
2016-10-15T02:52:38.476Z,59.68
2016-10-15T02:53:38.495Z,59.77
2016-10-15T02:54:38.834Z,59.68
2016-10-15T02:55:38.544Z,59.9
2016-10-15T02:56:38.570Z,59.48
2016-10-15T02:57:38.898Z,59.68
2016-10-15T02:58:38.615Z,59.58
2016-10-15T02:59:38.628Z,59.3
2016-10-15T03:00:38.651Z,59.2
2016-10-15T03:01:38.674Z,59.01
2016-10-15T03:02:38.696Z,59.11
2016-10-15T03:03:39.031Z,59.48
2016-10-15T03:04:38.758Z,59.3
2016-10-15T03:05:38.760Z,59.48
2016-10-15T03:06:39.102Z,59.2
2016-10-15T03:07:38.804Z,59.3
2016-10-15T03:08:39.144Z,59.77
2016-10-15T03:09:38.851Z,59.58
2016-10-15T03:10:39.188Z,59.58
2016-10-15T03:11:39.222Z,59.68
2016-10-15T03:12:39.231Z,59.48
2016-10-15T03:13:39.273Z,59.3
2016-10-15T03:14:38.959Z,59.3
2016-10-15T03:15:38.981Z,59.77
2016-10-15T03:16:39.003Z,59.68
2016-10-15T03:17:39.026Z,59.77
2016-10-15T03:18:39.048Z,59.39
2016-10-15T03:19:39.385Z,59.3
2016-10-15T03:20:39.096Z,59.2
2016-10-15T03:21:39.115Z,59.87
2016-10-15T03:22:39.455Z,59.58
2016-10-15T03:23:39.479Z,59.68
2016-10-15T03:24:39.495Z,59.68
2016-10-15T03:25:39.209Z,59.77
2016-10-15T03:26:39.224Z,59.58
2016-10-15T03:27:39.563Z,59.58
2016-10-15T03:28:39.270Z,59.87
2016-10-15T03:29:39.606Z,59.68
2016-10-15T03:30:39.654Z,59.58
2016-10-15T03:31:39.333Z,59.58
2016-10-15T03:32:39.357Z,59.58
2016-10-15T03:33:39.694Z,59.68
2016-10-15T03:34:39.721Z,59.68
2016-10-15T03:35:39.428Z,59.77
2016-10-15T03:36:39.759Z,59.68
2016-10-15T03:37:39.467Z,59.77
2016-10-15T03:38:39.488Z,60.35
2016-10-15T03:39:39.517Z,59.77
2016-10-15T03:40:39.847Z,59.97
2016-10-15T03:41:39.867Z,59.77
2016-10-15T03:42:39.889Z,59.58
2016-10-15T03:43:39.599Z,59.77
2016-10-15T03:44:39.941Z,59.58
2016-10-15T03:45:39.645Z,59.68
2016-10-15T03:46:39.665Z,59.58
2016-10-15T03:47:39.686Z,59.39
2016-10-15T03:48:40.031Z,59.01
2016-10-15T03:49:40.059Z,59.3
2016-10-15T03:50:39.753Z,59.39
2016-10-15T03:51:40.086Z,59.11
2016-10-15T03:52:39.796Z,59.97
2016-10-15T03:53:39.815Z,59.3
2016-10-15T03:54:39.841Z,59.3
2016-10-15T03:55:40.182Z,58.91
2016-10-15T03:56:40.198Z,59.2
2016-10-15T03:57:39.903Z,59.3
2016-10-15T03:58:39.925Z,59.58
2016-10-15T03:59:40.269Z,59.58
2016-10-15T04:00:40.287Z,59.77
2016-10-15T04:01:40.307Z,59.77
2016-10-15T04:02:40.013Z,59.87
2016-10-15T04:03:40.034Z,59.3
2016-10-15T04:04:40.371Z,59.48
2016-10-15T04:05:40.394Z,58.72
2016-10-15T04:06:40.417Z,58.81
2016-10-15T04:07:40.123Z,58.72
2016-10-15T04:08:40.144Z,58.81
2016-10-15T04:09:40.483Z,58.72
2016-10-15T04:10:40.503Z,59.01
2016-10-15T04:11:40.211Z,58.91
2016-10-15T04:12:40.243Z,59.11
2016-10-15T04:13:40.569Z,59.3
2016-10-15T04:14:40.276Z,58.53
2016-10-15T04:15:40.613Z,59.3
2016-10-15T04:16:40.319Z,59.58
2016-10-15T04:17:40.340Z,59.87
2016-10-15T04:18:40.678Z,59.3
2016-10-15T04:19:40.385Z,59.2
2016-10-15T04:20:40.730Z,59.77
2016-10-15T04:21:40.744Z,59.77
2016-10-15T04:22:40.767Z,59.2
2016-10-15T04:23:40.476Z,59.2
2016-10-15T04:24:40.498Z,59.77
2016-10-15T04:25:40.832Z,59.3
2016-10-15T04:26:40.535Z,59.3
2016-10-15T04:27:40.875Z,59.48
2016-10-15T04:28:40.897Z,59.77
2016-10-15T04:29:40.917Z,59.58
2016-10-15T04:30:40.940Z,59.77
2016-10-15T04:31:40.648Z,59.77
2016-10-15T04:32:40.984Z,59.58
2016-10-15T04:33:41.005Z,59.2
2016-10-15T04:34:41.029Z,59.11
2016-10-15T04:35:41.059Z,59.48
2016-10-15T04:36:41.070Z,59.01
2016-10-15T04:37:40.775Z,59.3
2016-10-15T04:38:40.798Z,59.68
2016-10-15T04:39:40.822Z,59.39
2016-10-15T04:40:40.841Z,59.3
2016-10-15T04:41:41.179Z,59.3
2016-10-15T04:42:40.886Z,59.77
2016-10-15T04:43:40.908Z,59.48
2016-10-15T04:44:41.250Z,59.58
2016-10-15T04:45:40.953Z,59.68
2016-10-15T04:46:40.971Z,59.77
2016-10-15T04:47:41.309Z,59.58
2016-10-15T04:48:41.015Z,59.58
2016-10-15T04:49:41.353Z,59.68
2016-10-15T04:50:41.373Z,59.58
2016-10-15T04:51:41.398Z,59.77
2016-10-15T04:52:41.125Z,59.77
2016-10-15T04:53:41.441Z,59.68
2016-10-15T04:54:41.145Z,59.77
2016-10-15T04:55:41.170Z,59.68
2016-10-15T04:56:41.504Z,59.77
2016-10-15T04:57:41.525Z,59.58
2016-10-15T04:58:41.554Z,59.87
2016-10-15T04:59:41.254Z,59.77
2016-10-15T05:00:41.275Z,59.48
2016-10-15T05:01:41.295Z,59.48
2016-10-15T05:02:41.323Z,59.77
2016-10-15T05:03:41.342Z,59.97
2016-10-15T05:04:41.364Z,59.58
2016-10-15T05:05:41.697Z,59.3
2016-10-15T05:06:41.726Z,59.68
2016-10-15T05:07:41.428Z,59.68
2016-10-15T05:08:41.765Z,59.97
2016-10-15T05:09:41.790Z,59.48
2016-10-15T05:10:41.493Z,59.68
2016-10-15T05:11:41.515Z,59.39
2016-10-15T05:12:41.848Z,59.58
2016-10-15T05:13:41.876Z,59.68
2016-10-15T05:14:41.579Z,59.77
2016-10-15T05:15:41.621Z,59.58
2016-10-15T05:16:41.623Z,59.77
2016-10-15T05:17:41.959Z,59.77
2016-10-15T05:18:41.980Z,59.68
2016-10-15T05:19:42.003Z,59.58
2016-10-15T05:20:42.026Z,60.64
2016-10-15T05:21:41.737Z,60.44
2016-10-15T05:22:42.068Z,60.35
2016-10-15T05:23:42.088Z,59.97
2016-10-15T05:24:42.109Z,59.68
2016-10-15T05:25:41.815Z,60.44
2016-10-15T05:26:41.835Z,60.16
2016-10-15T05:27:42.174Z,59.48
2016-10-15T05:28:41.881Z,59.58
2016-10-15T05:29:42.219Z,59.68
2016-10-15T05:30:42.240Z,59.68
2016-10-15T05:31:42.258Z,59.77
2016-10-15T05:32:41.966Z,59.68
2016-10-15T05:33:41.987Z,60.44
2016-10-15T05:34:42.009Z,59.97
2016-10-15T05:35:42.031Z,60.06
2016-10-15T05:36:42.053Z,60.54
2016-10-15T05:37:42.390Z,60.16
2016-10-15T05:38:42.412Z,59.87
2016-10-15T05:39:42.434Z,60.44
2016-10-15T05:40:42.452Z,60.73
2016-10-15T05:41:42.480Z,60.64
2016-10-15T05:42:42.497Z,60.73
2016-10-15T05:43:42.202Z,60.93
2016-10-15T05:44:42.549Z,60.06
2016-10-15T05:45:42.570Z,60.64
2016-10-15T05:46:42.585Z,60.83
2016-10-15T05:47:42.289Z,60.73
2016-10-15T05:48:42.639Z,60.44
2016-10-15T05:49:42.333Z,59.77
2016-10-15T05:50:42.678Z,60.44
2016-10-15T05:51:42.375Z,60.25
2016-10-15T05:52:42.403Z,59.97
2016-10-15T05:53:42.737Z,59.77
2016-10-15T05:54:42.754Z,59.58
2016-10-15T05:55:42.782Z,59.58
2016-10-15T05:56:42.487Z,60.06
2016-10-15T05:57:42.504Z,59.48
2016-10-15T05:58:42.841Z,59.68
2016-10-15T05:59:42.863Z,59.48
2016-10-15T06:00:42.903Z,59.68
2016-10-15T06:01:42.589Z,60.06
2016-10-15T06:02:42.925Z,59.58
2016-10-15T06:03:42.633Z,59.84
2016-10-15T06:04:42.653Z,59.68
2016-10-15T06:05:42.682Z,59.87
2016-10-15T06:06:43.013Z,59.68
2016-10-15T06:07:43.045Z,59.39
2016-10-15T06:08:42.753Z,59.58
2016-10-15T06:09:42.763Z,59.58
2016-10-15T06:10:42.784Z,59.77
2016-10-15T06:11:42.826Z,59.01
2016-10-15T06:12:42.827Z,59.01
2016-10-15T06:13:42.847Z,59.39
2016-10-15T06:14:42.869Z,59.2
2016-10-15T06:15:42.893Z,59.39
2016-10-15T06:16:42.913Z,59.2
2016-10-15T06:17:42.935Z,59.48
2016-10-15T06:18:42.956Z,58.81
2016-10-15T06:19:43.292Z,58.72
2016-10-15T06:20:43.315Z,59.01
2016-10-15T06:21:43.018Z,59.11
2016-10-15T06:22:43.358Z,58.81
2016-10-15T06:23:43.378Z,59.11
2016-10-15T06:24:43.398Z,58.91
2016-10-15T06:25:43.420Z,58.72
2016-10-15T06:26:43.449Z,58.81
2016-10-15T06:27:43.466Z,59.01
2016-10-15T06:28:43.171Z,59.39
2016-10-15T06:29:43.212Z,58.81
2016-10-15T06:30:43.225Z,59.2
2016-10-15T06:31:43.553Z,59.11
2016-10-15T06:32:43.573Z,58.72
2016-10-15T06:33:43.286Z,58.62
2016-10-15T06:34:43.299Z,58.81
2016-10-15T06:35:43.639Z,59.01
2016-10-15T06:36:43.342Z,58.72
2016-10-15T06:37:43.681Z,58.53
2016-10-15T06:38:43.721Z,58.44
2016-10-15T06:39:43.723Z,58.24
2016-10-15T06:40:43.435Z,58.27
2016-10-15T06:41:43.777Z,59.23
2016-10-15T06:42:43.475Z,59.04
2016-10-15T06:43:43.816Z,58.65
2016-10-15T06:44:43.518Z,58.65
2016-10-15T06:45:43.853Z,58.46
2016-10-15T06:46:43.563Z,58.17
2016-10-15T06:47:43.897Z,58.37
2016-10-15T06:48:43.927Z,58.37
2016-10-15T06:49:43.943Z,57.98
2016-10-15T06:50:43.963Z,58.37
2016-10-15T06:51:43.672Z,58.08
2016-10-15T06:52:43.694Z,58.46
2016-10-15T06:53:44.039Z,58.84
2016-10-15T06:54:43.737Z,59.13
2016-10-15T06:55:43.758Z,59.33
2016-10-15T06:56:44.104Z,58.75
2016-10-15T06:57:44.130Z,58.65
2016-10-15T06:58:44.138Z,59.33
2016-10-15T06:59:44.164Z,59.26
2016-10-15T07:00:44.186Z,59.42
2016-10-15T07:01:43.893Z,58.69
2016-10-15T07:02:43.912Z,58.69
2016-10-15T07:03:43.935Z,58.39
2016-10-15T07:04:43.955Z,58.39
2016-10-15T07:05:44.295Z,58.39
2016-10-15T07:06:44.001Z,58.3
2016-10-15T07:07:44.337Z,58.01
2016-10-15T07:08:44.043Z,57.92
2016-10-15T07:09:44.067Z,57.63
2016-10-15T07:10:44.107Z,57.34
2016-10-15T07:11:44.425Z,57.08
2016-10-15T07:12:44.472Z,56.98
2016-10-15T07:13:44.468Z,56.98
2016-10-15T07:14:44.179Z,56.79
2016-10-15T07:15:44.200Z,56.12
2016-10-15T07:16:44.224Z,56.89
2016-10-15T07:17:44.249Z,56.7
2016-10-15T07:18:44.267Z,56.7
2016-10-15T07:19:44.293Z,57.28
2016-10-15T07:20:44.312Z,55.93
2016-10-15T07:21:44.652Z,55.86
2016-10-15T07:22:44.358Z,55.38
2016-10-15T07:23:44.697Z,55.57
2016-10-15T07:24:44.718Z,56.34
2016-10-15T07:25:44.447Z,55.69
2016-10-15T07:26:44.766Z,54.83
2016-10-15T07:27:44.669Z,54.28
2016-10-15T07:28:44.495Z,54.28
2016-10-15T07:29:44.836Z,53.52
2016-10-15T07:30:44.859Z,52.58
2016-10-15T07:31:44.568Z,50.78
2016-10-15T07:32:44.593Z,49.07
2016-10-15T07:33:44.619Z,48.43
2016-10-15T07:34:44.642Z,47.75
2016-10-15T07:35:44.979Z,47.36
2016-10-15T07:36:45.005Z,45.92
2016-10-15T07:37:45.029Z,46.04
2016-10-15T07:38:45.052Z,46.14
2016-10-15T07:39:45.078Z,44.49
2016-10-15T07:40:45.128Z,43.92
2016-10-15T07:41:45.133Z,43.55
2016-10-15T07:42:44.843Z,43.94
2016-10-15T07:43:44.866Z,42.88
2016-10-15T07:44:45.204Z,43.37
2016-10-15T07:45:45.233Z,42.49
2016-10-15T07:46:44.956Z,42.79
2016-10-15T07:47:45.285Z,42.11
2016-10-15T07:48:44.993Z,43.17
2016-10-15T07:49:45.036Z,43.96
2016-10-15T07:50:45.047Z,42.32
2016-10-15T07:51:45.074Z,41.55
2016-10-15T07:52:45.105Z,40.8
2016-10-15T07:53:45.124Z,40.51
2016-10-15T07:54:45.149Z,39.84
2016-10-15T07:55:45.494Z,39.66
2016-10-15T07:56:45.205Z,40.65
2016-10-15T07:57:45.545Z,40.75
2016-10-15T07:58:45.571Z,38.54
2016-10-15T07:59:45.282Z,38.35
2016-10-15T08:00:45.309Z,38.64
2016-10-15T08:01:45.337Z,39.22
2016-10-15T08:02:45.679Z,38.54
2016-10-15T08:03:45.704Z,38.45
2016-10-15T08:04:45.731Z,38.66
2016-10-15T08:05:45.758Z,36.53
2016-10-15T08:06:45.787Z,36.34
2016-10-15T08:07:45.837Z,36.34
2016-10-15T08:08:45.527Z,37.19
2016-10-15T08:09:45.554Z,36.52
2016-10-15T08:10:45.898Z,36.71
2016-10-15T08:11:45.615Z,38.45
2016-10-15T08:12:45.637Z,38.74
2016-10-15T08:13:45.981Z,36.9
2016-10-15T08:14:46.010Z,37.21
2016-10-15T08:15:45.719Z,36.63
2016-10-15T08:16:46.063Z,36.24
2016-10-15T08:17:45.776Z,36.24
2016-10-15T08:18:46.121Z,35.1
2016-10-15T08:19:45.831Z,34.71
2016-10-15T08:20:45.859Z,34.15
2016-10-15T08:21:46.210Z,34.25
2016-10-15T08:22:46.231Z,34.54
2016-10-15T08:23:46.271Z,35.21
2016-10-15T08:24:45.971Z,33.67
2016-10-15T08:25:46.316Z,34.63
2016-10-15T08:26:46.028Z,33.86
2016-10-15T08:27:46.055Z,33.95
2016-10-15T08:28:46.083Z,35.6
2016-10-15T08:29:46.429Z,36.4
2016-10-15T08:30:46.453Z,36.1
2016-10-15T08:31:46.167Z,36.22
2016-10-15T08:32:46.193Z,34.19
2016-10-15T08:33:46.221Z,31.49
2016-10-15T08:34:46.250Z,31.39
2016-10-15T08:35:46.597Z,32.65
2016-10-15T08:36:46.328Z,31.49
2016-10-15T08:37:46.647Z,31.29
2016-10-15T08:38:46.362Z,31.01
2016-10-15T08:39:46.389Z,31.86
2016-10-15T08:40:46.736Z,32.24
2016-10-15T08:41:46.764Z,33.49
2016-10-15T08:42:46.795Z,33.29
2016-10-15T08:43:46.585Z,33.18
2016-10-15T08:44:46.543Z,33.18
2016-10-15T08:45:46.876Z,34.25
2016-10-15T08:46:46.587Z,34.63
2016-10-15T08:47:46.935Z,34.15
2016-10-15T08:48:46.653Z,34.63
2016-10-15T08:49:46.994Z,34.83
2016-10-15T08:50:47.015Z,35.5
2016-10-15T08:51:46.732Z,33.95
2016-10-15T08:52:46.758Z,33.57
2016-10-15T08:53:47.102Z,34.83
2016-10-15T08:54:46.816Z,36.28
2016-10-15T08:55:46.842Z,36.08
2016-10-15T08:56:46.872Z,35.5
2016-10-15T08:57:47.220Z,35.6
2016-10-15T08:58:47.241Z,34.73
2016-10-15T08:59:47.272Z,34.25
2016-10-15T09:00:47.304Z,34.52
2016-10-15T09:01:47.125Z,34.33
2016-10-15T09:02:47.037Z,34.79
2016-10-15T09:03:47.386Z,35.86
2016-10-15T09:04:47.409Z,36.15
2016-10-15T09:05:47.439Z,35.95
2016-10-15T09:06:47.149Z,35.28
2016-10-15T09:07:47.495Z,36.15
2016-10-15T09:08:47.205Z,34.79
2016-10-15T09:09:47.547Z,34.99
2016-10-15T09:10:47.259Z,35.28
2016-10-15T09:11:47.286Z,35.28
2016-10-15T09:12:47.631Z,37.02
2016-10-15T09:13:47.656Z,36.72
2016-10-15T09:14:47.685Z,36.53
2016-10-15T09:15:47.396Z,35.58
2016-10-15T09:16:47.425Z,34.33
2016-10-15T09:17:47.454Z,34.89
2016-10-15T09:18:47.794Z,35.28
2016-10-15T09:19:47.507Z,35.95
2016-10-15T09:20:47.848Z,36.15
2016-10-15T09:21:47.610Z,37.5
2016-10-15T09:22:47.902Z,37.98
2016-10-15T09:23:47.619Z,36.65
2016-10-15T09:24:47.961Z,35.97
2016-10-15T09:25:47.986Z,34.33
2016-10-15T09:26:47.697Z,34.71
2016-10-15T09:27:48.040Z,33.84
2016-10-15T09:28:47.754Z,34.81
2016-10-15T09:29:47.780Z,34.52
2016-10-15T09:30:48.128Z,35.39
2016-10-15T09:31:47.837Z,36.36
2016-10-15T09:32:48.178Z,34.52
2016-10-15T09:33:47.911Z,35
2016-10-15T09:34:47.917Z,34.71
2016-10-15T09:35:47.945Z,35.68
2016-10-15T09:36:48.308Z,35.18
2016-10-15T09:37:47.999Z,34.99
2016-10-15T09:38:48.025Z,34.91
2016-10-15T09:39:48.055Z,34.91
2016-10-15T09:40:48.396Z,35.31
2016-10-15T09:41:48.425Z,34.63
2016-10-15T09:42:48.453Z,34.15
2016-10-15T09:43:48.164Z,34.25
2016-10-15T09:44:48.192Z,33.84
2016-10-15T09:45:48.534Z,34.23
2016-10-15T09:46:48.573Z,34.52
2016-10-15T09:47:48.586Z,35.2
2016-10-15T09:48:48.622Z,34.62
2016-10-15T09:49:48.644Z,33.65
2016-10-15T09:50:48.354Z,33.45
2016-10-15T09:51:48.699Z,35.1
2016-10-15T09:52:48.410Z,36.24
2016-10-15T09:53:48.438Z,36.15
2016-10-15T09:54:48.783Z,35.58
2016-10-15T09:55:48.493Z,33.55
2016-10-15T09:56:48.520Z,33.75
2016-10-15T09:57:48.559Z,34.23
2016-10-15T09:58:48.891Z,35.2
2016-10-15T09:59:48.918Z,34.13
2016-10-15T10:00:48.959Z,34.42
2016-10-15T10:01:48.658Z,34.33
2016-10-15T10:02:49.001Z,35.49
2016-10-15T10:03:48.712Z,35
2016-10-15T10:04:49.055Z,34.33
2016-10-15T10:05:48.776Z,34.62
2016-10-15T10:06:48.794Z,34.12
2016-10-15T10:07:48.840Z,34.5
2016-10-15T10:08:48.849Z,34.21
2016-10-15T10:09:49.194Z,35.37
2016-10-15T10:10:48.906Z,36.53
2016-10-15T10:11:49.271Z,36.82
2016-10-15T10:12:48.967Z,35.08
2016-10-15T10:13:48.993Z,35.08
2016-10-15T10:14:49.015Z,35.88
2016-10-15T10:15:49.043Z,35.1
2016-10-15T10:16:50.040Z,33.94
2016-10-15T10:17:49.098Z,33.65
2016-10-15T10:18:49.443Z,34.81
2016-10-15T10:19:49.153Z,34.15
2016-10-15T10:20:49.217Z,33.76
2016-10-15T10:21:49.525Z,34.05
2016-10-15T10:22:49.549Z,35.31
2016-10-15T10:23:49.265Z,35.99
2016-10-15T10:24:49.291Z,36.28
2016-10-15T10:25:49.317Z,37.54
2016-10-15T10:26:49.346Z,37.34
2016-10-15T10:27:49.688Z,37.36
2016-10-15T10:28:49.418Z,37.17
2016-10-15T10:29:49.763Z,35.72
2016-10-15T10:30:49.456Z,35.23
2016-10-15T10:31:49.484Z,32.71
2016-10-15T10:32:49.514Z,33.97
2016-10-15T10:33:49.854Z,34.55
2016-10-15T10:34:49.567Z,33.2
2016-10-15T10:35:49.910Z,33.87
2016-10-15T10:36:49.949Z,33.76
2016-10-15T10:37:49.659Z,34.34
2016-10-15T10:38:49.676Z,33.18
2016-10-15T10:39:50.037Z,32.7
2016-10-15T10:40:49.732Z,32.99
2016-10-15T10:41:50.076Z,34.05
2016-10-15T10:42:49.789Z,32.79
2016-10-15T10:43:49.816Z,33.39
2016-10-15T10:44:50.165Z,32.42
2016-10-15T10:45:50.185Z,32.14
2016-10-15T10:46:49.900Z,33.39
2016-10-15T10:47:50.241Z,32.81
2016-10-15T10:48:50.269Z,32.52
2016-10-15T10:49:49.980Z,33.87
2016-10-15T10:50:50.326Z,35.62
2016-10-15T10:51:50.353Z,33.69
2016-10-15T10:52:50.381Z,34.44
2016-10-15T10:53:50.095Z,33.86
2016-10-15T10:54:50.436Z,35.31
2016-10-15T10:55:50.150Z,33.78
2016-10-15T10:56:50.176Z,33.49
2016-10-15T10:57:50.206Z,33.57
2016-10-15T10:58:50.230Z,32.51
2016-10-15T10:59:50.573Z,33.39
2016-10-15T11:00:50.287Z,34.94
2016-10-15T11:01:50.330Z,35.52
2016-10-15T11:02:50.660Z,33.87
2016-10-15T11:03:50.682Z,34.27
2016-10-15T11:04:50.398Z,35.31
2016-10-15T11:05:50.742Z,34.84
2016-10-15T11:06:50.454Z,34.94
2016-10-15T11:07:50.479Z,34.84
2016-10-15T11:08:50.512Z,33.39
2016-10-15T11:09:50.537Z,32.62
2016-10-15T11:10:50.881Z,33.39
2016-10-15T11:11:50.590Z,32.71
2016-10-15T11:12:50.935Z,32.71
2016-10-15T11:13:50.965Z,32.33
2016-10-15T11:14:50.989Z,32.52
2016-10-15T11:15:50.699Z,35.33
2016-10-15T11:16:50.736Z,34.17
2016-10-15T11:17:50.757Z,34.17
2016-10-15T11:18:50.785Z,33.87
2016-10-15T11:19:50.813Z,32.62
2016-10-15T11:20:50.842Z,34.17
2016-10-15T11:21:51.182Z,33.78
2016-10-15T11:22:51.211Z,32.71
2016-10-15T11:23:50.924Z,32.71
2016-10-15T11:24:51.266Z,32.23
2016-10-15T11:25:50.981Z,32.52
2016-10-15T11:26:51.032Z,32.42
2016-10-15T11:27:51.351Z,34.05
2016-10-15T11:28:51.063Z,33.86
2016-10-15T11:29:51.089Z,34.05
2016-10-15T11:30:51.432Z,34.13
2016-10-15T11:31:51.144Z,34.34
2016-10-15T11:32:51.488Z,34.05
2016-10-15T11:33:51.200Z,33.37
2016-10-15T11:34:51.545Z,36.08
2016-10-15T11:35:51.570Z,34.83
2016-10-15T11:36:51.612Z,33.55
2016-10-15T11:37:51.624Z,34.42
2016-10-15T11:38:51.653Z,34.23
2016-10-15T11:39:51.367Z,33.84
2016-10-15T11:40:51.393Z,34.25
2016-10-15T11:41:51.420Z,32.99
2016-10-15T11:42:51.463Z,32.52
2016-10-15T11:43:51.474Z,32.79
2016-10-15T11:44:51.828Z,33.97
2016-10-15T11:45:51.528Z,34.83
2016-10-15T11:46:51.559Z,32.6
2016-10-15T11:47:51.586Z,32.7
2016-10-15T11:48:51.614Z,34.44
2016-10-15T11:49:51.957Z,32.99
2016-10-15T11:50:51.680Z,33.47
2016-10-15T11:51:52.009Z,33.47
2016-10-15T11:52:51.721Z,32.89
2016-10-15T11:53:52.066Z,32.79
2016-10-15T11:54:51.786Z,34.73
2016-10-15T11:55:52.120Z,34.63
2016-10-15T11:56:52.148Z,33.86
2016-10-15T11:57:52.176Z,32.7
2016-10-15T11:58:51.918Z,34.45
2016-10-15T11:59:51.915Z,36.3
2016-10-15T12:00:52.266Z,34.17
2016-10-15T12:01:51.973Z,33.29
2016-10-15T12:02:52.314Z,33.76
2016-10-15T12:03:52.028Z,34.17
2016-10-15T12:04:52.056Z,34.83
2016-10-15T12:05:52.123Z,34.44
2016-10-15T12:06:52.113Z,33.47
2016-10-15T12:07:52.138Z,35.31
2016-10-15T12:08:52.479Z,35.5
2016-10-15T12:09:52.193Z,34.54
2016-10-15T12:10:52.535Z,36.47
2016-10-15T12:11:52.560Z,36.26
2016-10-15T12:12:52.590Z,35.58
2016-10-15T12:13:52.321Z,34.42
2016-10-15T12:14:52.332Z,34.5
2016-10-15T12:15:52.358Z,34.99
2016-10-15T12:16:52.696Z,36.24
2016-10-15T12:17:52.412Z,35.16
2016-10-15T12:18:52.750Z,36.03
2016-10-15T12:19:52.467Z,36.71
2016-10-15T12:20:52.807Z,36.42
2016-10-15T12:21:52.913Z,37.19
2016-10-15T12:22:52.869Z,37.87
2016-10-15T12:23:52.887Z,37.58
2016-10-15T12:24:52.916Z,35.64
2016-10-15T12:25:52.628Z,36.22
2016-10-15T12:26:52.969Z,37.19
2016-10-15T12:27:53.008Z,36.8
2016-10-15T12:28:52.708Z,36.61
2016-10-15T12:29:52.757Z,37.38
2016-10-15T12:30:53.075Z,37.65
2016-10-15T12:31:53.109Z,37.56
2016-10-15T12:32:53.133Z,39.11
2016-10-15T12:33:53.160Z,38.53
2016-10-15T12:34:53.183Z,37.27
2016-10-15T12:35:52.894Z,38.43
2016-10-15T12:36:52.923Z,38.43
2016-10-15T12:37:52.970Z,40.05
2016-10-15T12:38:52.983Z,40.34
2016-10-15T12:39:53.002Z,40.05
2016-10-15T12:40:53.030Z,41.2
2016-10-15T12:41:53.372Z,40.24
2016-10-15T12:42:53.395Z,39.09
2016-10-15T12:43:53.120Z,40.15
2016-10-15T12:44:53.135Z,40.44
2016-10-15T12:45:53.160Z,39.64
2016-10-15T12:46:53.502Z,40.7
2016-10-15T12:47:53.213Z,40.8
2016-10-15T12:48:53.240Z,40.42
2016-10-15T12:49:53.582Z,40.7
2016-10-15T12:50:53.292Z,40.22
2016-10-15T12:51:53.318Z,40.8
2016-10-15T12:52:53.346Z,40.11
2016-10-15T12:53:53.686Z,40.69
2016-10-15T12:54:53.414Z,41.55
2016-10-15T12:55:53.739Z,41.46